sensor_id;sensor_type;location;lat;lon;timestamp;pressure;altitude;pressure_sealevel;temperature;humidity
16595;BME280;8410;52.532;13.336;2023-04-01T00:01:59;99218.28;;;13.61;87.02
16595;BME280;8410;52.532;13.336;2023-04-01T00:04:26;99214.94;;;13.56;87.61
16595;BME280;8410;52.532;13.336;2023-04-01T00:06:54;99214.63;;;13.68;87.54
16595;BME280;8410;52.532;13.336;2023-04-01T00:09:21;99217.75;;;13.82;86.66
16595;BME280;8410;52.532;13.336;2023-04-01T00:11:49;99217.63;;;13.51;87.99
16595;BME280;8410;52.532;13.336;2023-04-01T00:14:18;99218.13;;;13.67;86.02
16595;BME280;8410;52.532;13.336;2023-04-01T00:16:45;99221.66;;;13.63;86.36
16595;BME280;8410;52.532;13.336;2023-04-01T00:19:13;99218.38;;;13.56;86.80
16595;BME280;8410;52.532;13.336;2023-04-01T00:21:41;99222.88;;;13.48;87.47
16595;BME280;8410;52.532;13.336;2023-04-01T00:24:08;99216.88;;;13.48;87.44
16595;BME280;8410;52.532;13.336;2023-04-01T00:26:36;99217.34;;;13.63;87.66
16595;BME280;8410;52.532;13.336;2023-04-01T00:29:04;99218.63;;;13.81;86.96
16595;BME280;8410;52.532;13.336;2023-04-01T00:31:33;99217.84;;;13.78;86.03
16595;BME280;8410;52.532;13.336;2023-04-01T00:34:00;99219.69;;;13.74;86.06
16595;BME280;8410;52.532;13.336;2023-04-01T00:36:28;99217.97;;;13.73;86.39
16595;BME280;8410;52.532;13.336;2023-04-01T00:38:57;99215.03;;;13.53;87.06
16595;BME280;8410;52.532;13.336;2023-04-01T00:41:25;99214.56;;;13.71;86.43
16595;BME280;8410;52.532;13.336;2023-04-01T00:43:52;99215.28;;;13.76;86.62
16595;BME280;8410;52.532;13.336;2023-04-01T00:46:20;99220.59;;;13.72;86.93
16595;BME280;8410;52.532;13.336;2023-04-01T00:48:51;99216.97;;;13.43;85.54
16595;BME280;8410;52.532;13.336;2023-04-01T00:51:22;99219.69;;;13.74;87.08
16595;BME280;8410;52.532;13.336;2023-04-01T00:53:52;99211.25;;;13.66;85.66
16595;BME280;8410;52.532;13.336;2023-04-01T00:56:22;99223.00;;;13.79;86.29
16595;BME280;8410;52.532;13.336;2023-04-01T00:58:57;99223.75;;;13.83;86.25
16595;BME280;8410;52.532;13.336;2023-04-01T01:01:28;99217.50;;;13.92;86.12
16595;BME280;8410;52.532;13.336;2023-04-01T01:03:58;99222.13;;;13.79;85.91
16595;BME280;8410;52.532;13.336;2023-04-01T01:06:36;99218.09;;;13.68;85.85
16595;BME280;8410;52.532;13.336;2023-04-01T01:09:13;99219.47;;;13.82;86.80
16595;BME280;8410;52.532;13.336;2023-04-01T01:11:48;99221.47;;;13.71;87.09
16595;BME280;8410;52.532;13.336;2023-04-01T01:14:25;99218.47;;;13.87;86.56
16595;BME280;8410;52.532;13.336;2023-04-01T01:16:59;99219.34;;;13.86;85.58
16595;BME280;8410;52.532;13.336;2023-04-01T01:22:45;99222.84;;;13.85;85.73
16595;BME280;8410;52.532;13.336;2023-04-01T01:25:25;99221.19;;;13.81;86.17
16595;BME280;8410;52.532;13.336;2023-04-01T01:28:07;99225.44;;;13.85;86.92
16595;BME280;8410;52.532;13.336;2023-04-01T01:30:49;99220.47;;;13.40;86.99
16595;BME280;8410;52.532;13.336;2023-04-01T01:33:29;99229.81;;;13.46;87.86
16595;BME280;8410;52.532;13.336;2023-04-01T01:36:04;99225.41;;;13.50;88.11
16595;BME280;8410;52.532;13.336;2023-04-01T01:38:34;99222.66;;;13.57;88.30
16595;BME280;8410;52.532;13.336;2023-04-01T01:41:04;99221.72;;;13.60;87.55
16595;BME280;8410;52.532;13.336;2023-04-01T01:43:35;99226.72;;;13.67;87.61
16595;BME280;8410;52.532;13.336;2023-04-01T01:46:07;99227.91;;;13.54;86.77
16595;BME280;8410;52.532;13.336;2023-04-01T01:48:37;99223.50;;;13.58;88.53
16595;BME280;8410;52.532;13.336;2023-04-01T01:51:07;99225.91;;;13.65;88.66
16595;BME280;8410;52.532;13.336;2023-04-01T01:53:35;99225.97;;;13.64;88.99
16595;BME280;8410;52.532;13.336;2023-04-01T01:56:04;99224.97;;;13.68;88.25
16595;BME280;8410;52.532;13.336;2023-04-01T01:58:35;99234.56;;;13.64;88.20
16595;BME280;8410;52.532;13.336;2023-04-01T02:01:10;99233.72;;;13.64;87.83
16595;BME280;8410;52.532;13.336;2023-04-01T02:03:40;99238.88;;;13.64;87.10
16595;BME280;8410;52.532;13.336;2023-04-01T02:06:14;99234.53;;;13.66;88.27
16595;BME280;8410;52.532;13.336;2023-04-01T02:08:45;99244.75;;;13.71;88.96
16595;BME280;8410;52.532;13.336;2023-04-01T02:11:16;99236.59;;;13.87;88.33
16595;BME280;8410;52.532;13.336;2023-04-01T02:13:48;99240.13;;;13.83;89.13
16595;BME280;8410;52.532;13.336;2023-04-01T02:16:20;99234.78;;;13.89;88.95
16595;BME280;8410;52.532;13.336;2023-04-01T02:18:52;99237.97;;;14.01;87.74
16595;BME280;8410;52.532;13.336;2023-04-01T02:21:26;99239.75;;;13.99;88.32
16595;BME280;8410;52.532;13.336;2023-04-01T02:23:56;99236.19;;;14.03;87.41
16595;BME280;8410;52.532;13.336;2023-04-01T02:26:25;99229.47;;;13.96;88.31
16595;BME280;8410;52.532;13.336;2023-04-01T02:28:54;99240.28;;;13.77;87.10
16595;BME280;8410;52.532;13.336;2023-04-01T02:31:23;99237.50;;;13.85;87.31
16595;BME280;8410;52.532;13.336;2023-04-01T02:33:51;99234.00;;;13.87;86.90
16595;BME280;8410;52.532;13.336;2023-04-01T02:36:19;99237.47;;;13.86;86.25
16595;BME280;8410;52.532;13.336;2023-04-01T02:38:49;99245.09;;;13.93;86.13
16595;BME280;8410;52.532;13.336;2023-04-01T02:41:18;99246.53;;;13.68;86.75
16595;BME280;8410;52.532;13.336;2023-04-01T02:43:47;99245.97;;;13.56;86.63
16595;BME280;8410;52.532;13.336;2023-04-01T02:46:14;99246.91;;;13.53;87.51
16595;BME280;8410;52.532;13.336;2023-04-01T02:48:42;99252.84;;;13.57;88.38
16595;BME280;8410;52.532;13.336;2023-04-01T02:51:09;99254.59;;;13.55;86.28
16595;BME280;8410;52.532;13.336;2023-04-01T02:53:36;99247.75;;;13.54;86.98
16595;BME280;8410;52.532;13.336;2023-04-01T02:56:05;99252.84;;;13.57;87.46
16595;BME280;8410;52.532;13.336;2023-04-01T02:58:33;99268.75;;;13.40;86.96
16595;BME280;8410;52.532;13.336;2023-04-01T03:01:00;99273.81;;;13.44;87.93
16595;BME280;8410;52.532;13.336;2023-04-01T03:03:28;99269.63;;;13.39;87.59
16595;BME280;8410;52.532;13.336;2023-04-01T03:05:56;99256.09;;;13.65;89.37
16595;BME280;8410;52.532;13.336;2023-04-01T03:08:24;99264.88;;;13.58;87.56
16595;BME280;8410;52.532;13.336;2023-04-01T03:10:52;99273.03;;;13.41;88.33
16595;BME280;8410;52.532;13.336;2023-04-01T03:13:21;99271.09;;;13.51;87.57
16595;BME280;8410;52.532;13.336;2023-04-01T03:15:48;99276.09;;;13.57;87.32
16595;BME280;8410;52.532;13.336;2023-04-01T03:18:15;99263.69;;;13.71;86.95
16595;BME280;8410;52.532;13.336;2023-04-01T03:20:43;99266.75;;;13.53;86.82
16595;BME280;8410;52.532;13.336;2023-04-01T03:23:11;99273.81;;;13.44;86.09
16595;BME280;8410;52.532;13.336;2023-04-01T03:25:38;99274.44;;;13.54;87.44
16595;BME280;8410;52.532;13.336;2023-04-01T03:28:05;99274.69;;;13.43;87.18
16595;BME280;8410;52.532;13.336;2023-04-01T03:30:34;99278.91;;;13.48;88.01
16595;BME280;8410;52.532;13.336;2023-04-01T03:33:02;99277.28;;;13.43;86.07
16595;BME280;8410;52.532;13.336;2023-04-01T03:35:30;99272.63;;;13.19;87.58
16595;BME280;8410;52.532;13.336;2023-04-01T03:37:58;99277.41;;;13.37;88.66
16595;BME280;8410;52.532;13.336;2023-04-01T03:40:25;99281.78;;;13.35;87.57
16595;BME280;8410;52.532;13.336;2023-04-01T03:42:53;99273.53;;;13.57;87.61
16595;BME280;8410;52.532;13.336;2023-04-01T03:45:22;99287.19;;;13.62;86.87
16595;BME280;8410;52.532;13.336;2023-04-01T03:47:51;99289.03;;;13.57;87.25
16595;BME280;8410;52.532;13.336;2023-04-01T03:50:18;99292.59;;;13.53;86.46
16595;BME280;8410;52.532;13.336;2023-04-01T03:52:46;99285.38;;;13.65;86.68
16595;BME280;8410;52.532;13.336;2023-04-01T03:55:13;99300.44;;;13.48;86.78
16595;BME280;8410;52.532;13.336;2023-04-01T03:57:41;99290.94;;;13.50;86.61
16595;BME280;8410;52.532;13.336;2023-04-01T04:00:10;99301.88;;;13.60;86.86
16595;BME280;8410;52.532;13.336;2023-04-01T04:02:37;99300.22;;;13.57;86.76
16595;BME280;8410;52.532;13.336;2023-04-01T04:05:07;99301.06;;;13.58;86.55
16595;BME280;8410;52.532;13.336;2023-04-01T04:07:34;99306.53;;;13.45;87.50
16595;BME280;8410;52.532;13.336;2023-04-01T04:10:02;99309.06;;;13.47;87.35
16595;BME280;8410;52.532;13.336;2023-04-01T04:12:30;99309.53;;;13.66;87.21
16595;BME280;8410;52.532;13.336;2023-04-01T04:14:57;99309.38;;;13.72;86.18
16595;BME280;8410;52.532;13.336;2023-04-01T04:17:25;99316.72;;;13.53;86.77
16595;BME280;8410;52.532;13.336;2023-04-01T04:19:52;99308.16;;;13.50;87.61
16595;BME280;8410;52.532;13.336;2023-04-01T04:22:21;99308.91;;;13.55;86.99
16595;BME280;8410;52.532;13.336;2023-04-01T04:24:48;99319.53;;;13.42;86.83
16595;BME280;8410;52.532;13.336;2023-04-01T04:27:16;99316.56;;;13.19;88.30
16595;BME280;8410;52.532;13.336;2023-04-01T04:29:44;99312.47;;;13.49;87.22
16595;BME280;8410;52.532;13.336;2023-04-01T04:32:11;99318.78;;;13.37;87.34
16595;BME280;8410;52.532;13.336;2023-04-01T04:34:38;99316.94;;;13.42;87.93
16595;BME280;8410;52.532;13.336;2023-04-01T04:37:06;99319.22;;;13.56;87.44
16595;BME280;8410;52.532;13.336;2023-04-01T04:39:35;99322.81;;;13.49;87.73
16595;BME280;8410;52.532;13.336;2023-04-01T04:42:02;99323.47;;;13.59;87.31
16595;BME280;8410;52.532;13.336;2023-04-01T04:44:30;99320.97;;;13.56;87.58
16595;BME280;8410;52.532;13.336;2023-04-01T04:46:57;99326.81;;;13.62;87.76
16595;BME280;8410;52.532;13.336;2023-04-01T04:49:25;99330.97;;;13.70;86.68
16595;BME280;8410;52.532;13.336;2023-04-01T04:51:52;99333.75;;;13.62;86.76
16595;BME280;8410;52.532;13.336;2023-04-01T04:54:20;99328.34;;;13.71;87.32
16595;BME280;8410;52.532;13.336;2023-04-01T04:56:51;99328.66;;;13.59;86.74
16595;BME280;8410;52.532;13.336;2023-04-01T04:59:18;99342.66;;;13.49;88.30
16595;BME280;8410;52.532;13.336;2023-04-01T05:01:46;99335.56;;;13.57;87.65
16595;BME280;8410;52.532;13.336;2023-04-01T05:04:13;99337.72;;;13.36;87.74
16595;BME280;8410;52.532;13.336;2023-04-01T05:06:42;99338.69;;;13.32;89.09
16595;BME280;8410;52.532;13.336;2023-04-01T05:09:10;99332.53;;;13.38;89.12
16595;BME280;8410;52.532;13.336;2023-04-01T05:11:37;99336.47;;;13.56;88.55
16595;BME280;8410;52.532;13.336;2023-04-01T05:14:12;99335.88;;;13.44;89.24
16595;BME280;8410;52.532;13.336;2023-04-01T05:16:39;99338.22;;;13.55;89.17
16595;BME280;8410;52.532;13.336;2023-04-01T05:19:07;99349.88;;;13.34;90.19
16595;BME280;8410;52.532;13.336;2023-04-01T05:21:34;99347.69;;;13.55;89.55
16595;BME280;8410;52.532;13.336;2023-04-01T05:24:02;99348.03;;;13.39;89.59
16595;BME280;8410;52.532;13.336;2023-04-01T05:26:29;99348.72;;;13.48;89.41
16595;BME280;8410;52.532;13.336;2023-04-01T05:28:58;99351.94;;;13.57;89.38
16595;BME280;8410;52.532;13.336;2023-04-01T05:31:27;99349.94;;;13.30;89.60
16595;BME280;8410;52.532;13.336;2023-04-01T05:33:55;99352.22;;;13.45;90.31
16595;BME280;8410;52.532;13.336;2023-04-01T05:36:22;99359.00;;;13.49;89.57
16595;BME280;8410;52.532;13.336;2023-04-01T05:38:50;99360.00;;;13.43;90.41
16595;BME280;8410;52.532;13.336;2023-04-01T05:41:17;99356.06;;;13.66;89.25
16595;BME280;8410;52.532;13.336;2023-04-01T05:43:45;99356.19;;;13.60;88.27
16595;BME280;8410;52.532;13.336;2023-04-01T05:46:12;99354.06;;;13.38;89.97
16595;BME280;8410;52.532;13.336;2023-04-01T05:48:41;99356.06;;;13.66;88.97
16595;BME280;8410;52.532;13.336;2023-04-01T05:51:12;99362.44;;;13.50;88.50
16595;BME280;8410;52.532;13.336;2023-04-01T05:53:40;99366.28;;;13.32;90.37
16595;BME280;8410;52.532;13.336;2023-04-01T05:56:07;99368.75;;;13.36;90.84
16595;BME280;8410;52.532;13.336;2023-04-01T05:58:36;99366.69;;;13.54;90.32
16595;BME280;8410;52.532;13.336;2023-04-01T06:01:04;99368.28;;;13.59;89.81
16595;BME280;8410;52.532;13.336;2023-04-01T06:03:42;99377.25;;;13.41;89.62
16595;BME280;8410;52.532;13.336;2023-04-01T06:06:13;99381.53;;;13.44;91.25
16595;BME280;8410;52.532;13.336;2023-04-01T06:08:42;99377.59;;;13.26;90.76
16595;BME280;8410;52.532;13.336;2023-04-01T06:11:21;99383.09;;;13.51;91.02
16595;BME280;8410;52.532;13.336;2023-04-01T06:14:03;99386.44;;;13.56;91.17
16595;BME280;8410;52.532;13.336;2023-04-01T06:16:42;99387.50;;;13.48;91.13
16595;BME280;8410;52.532;13.336;2023-04-01T06:19:29;99382.81;;;13.65;90.62
16595;BME280;8410;52.532;13.336;2023-04-01T06:22:22;99394.81;;;13.67;90.62
16595;BME280;8410;52.532;13.336;2023-04-01T06:25:14;99398.75;;;13.85;88.13
16595;BME280;8410;52.532;13.336;2023-04-01T06:27:54;99395.53;;;13.74;89.36
16595;BME280;8410;52.532;13.336;2023-04-01T06:30:32;99394.25;;;13.92;89.25
16595;BME280;8410;52.532;13.336;2023-04-01T06:33:18;99395.19;;;13.89;88.60
16595;BME280;8410;52.532;13.336;2023-04-01T06:36:09;99401.19;;;13.92;89.26
16595;BME280;8410;52.532;13.336;2023-04-01T06:38:51;99402.00;;;13.94;88.47
16595;BME280;8410;52.532;13.336;2023-04-01T06:44:34;99403.50;;;14.04;87.89
16595;BME280;8410;52.532;13.336;2023-04-01T06:47:13;99401.00;;;13.99;88.22
16595;BME280;8410;52.532;13.336;2023-04-01T06:49:52;99410.25;;;13.71;88.89
16595;BME280;8410;52.532;13.336;2023-04-01T06:52:27;99416.03;;;13.83;89.26
16595;BME280;8410;52.532;13.336;2023-04-01T06:55:02;99413.13;;;13.97;88.61
16595;BME280;8410;52.532;13.336;2023-04-01T06:57:39;99412.50;;;13.87;88.49
16595;BME280;8410;52.532;13.336;2023-04-01T07:00:13;99418.47;;;13.89;88.76
16595;BME280;8410;52.532;13.336;2023-04-01T07:02:43;99413.00;;;14.03;88.67
16595;BME280;8410;52.532;13.336;2023-04-01T07:05:13;99412.84;;;14.09;88.21
16595;BME280;8410;52.532;13.336;2023-04-01T07:07:45;99423.59;;;13.93;87.92
16595;BME280;8410;52.532;13.336;2023-04-01T07:10:17;99426.66;;;14.08;87.74
16595;BME280;8410;52.532;13.336;2023-04-01T07:12:47;99425.75;;;14.11;88.53
16595;BME280;8410;52.532;13.336;2023-04-01T07:15:21;99425.13;;;14.00;88.25
16595;BME280;8410;52.532;13.336;2023-04-01T07:17:53;99420.09;;;14.31;87.50
16595;BME280;8410;52.532;13.336;2023-04-01T07:20:25;99421.78;;;14.33;87.15
16595;BME280;8410;52.532;13.336;2023-04-01T07:22:58;99427.88;;;14.31;86.70
16595;BME280;8410;52.532;13.336;2023-04-01T07:25:29;99426.63;;;14.10;87.18
16595;BME280;8410;52.532;13.336;2023-04-01T07:28:02;99431.34;;;14.30;87.36
16595;BME280;8410;52.532;13.336;2023-04-01T07:30:39;99430.72;;;14.20;87.50
16595;BME280;8410;52.532;13.336;2023-04-01T07:33:14;99437.25;;;13.98;88.36
16595;BME280;8410;52.532;13.336;2023-04-01T07:35:47;99433.75;;;14.38;87.68
16595;BME280;8410;52.532;13.336;2023-04-01T07:38:24;99438.06;;;14.37;86.80
16595;BME280;8410;52.532;13.336;2023-04-01T07:41:04;99445.44;;;13.79;89.08
16595;BME280;8410;52.532;13.336;2023-04-01T07:43:48;99444.16;;;13.99;88.35
16595;BME280;8410;52.532;13.336;2023-04-01T07:46:26;99443.19;;;14.03;88.62
16595;BME280;8410;52.532;13.336;2023-04-01T07:49:04;99442.69;;;14.24;88.29
16595;BME280;8410;52.532;13.336;2023-04-01T07:51:40;99445.22;;;13.90;88.43
16595;BME280;8410;52.532;13.336;2023-04-01T07:54:22;99453.94;;;13.84;91.04
16595;BME280;8410;52.532;13.336;2023-04-01T07:56:56;99447.72;;;13.53;91.59
16595;BME280;8410;52.532;13.336;2023-04-01T07:59:30;99457.47;;;13.80;90.74
16595;BME280;8410;52.532;13.336;2023-04-01T08:02:11;99458.56;;;13.25;92.40
16595;BME280;8410;52.532;13.336;2023-04-01T08:04:53;99463.53;;;13.37;92.71
16595;BME280;8410;52.532;13.336;2023-04-01T08:07:25;99459.06;;;13.45;92.96
16595;BME280;8410;52.532;13.336;2023-04-01T08:10:03;99467.50;;;13.54;92.12
16595;BME280;8410;52.532;13.336;2023-04-01T08:12:40;99467.19;;;13.24;93.53
16595;BME280;8410;52.532;13.336;2023-04-01T08:15:15;99460.94;;;13.37;92.05
16595;BME280;8410;52.532;13.336;2023-04-01T08:17:57;99463.94;;;13.59;93.73
16595;BME280;8410;52.532;13.336;2023-04-01T08:20:33;99470.88;;;13.98;90.90
16595;BME280;8410;52.532;13.336;2023-04-01T08:23:07;99476.50;;;13.78;90.44
16595;BME280;8410;52.532;13.336;2023-04-01T08:25:46;99475.66;;;13.77;91.24
16595;BME280;8410;52.532;13.336;2023-04-01T08:28:20;99480.66;;;13.43;92.02
16595;BME280;8410;52.532;13.336;2023-04-01T08:30:52;99482.16;;;12.55;93.73
16595;BME280;8410;52.532;13.336;2023-04-01T08:33:24;99495.38;;;11.67;97.36
16595;BME280;8410;52.532;13.336;2023-04-01T08:35:55;99507.72;;;10.44;100.00
16595;BME280;8410;52.532;13.336;2023-04-01T08:38:28;99499.84;;;10.62;100.00
16595;BME280;8410;52.532;13.336;2023-04-01T08:41:00;99503.56;;;11.27;100.00
16595;BME280;8410;52.532;13.336;2023-04-01T08:43:50;99499.16;;;11.39;100.00
16595;BME280;8410;52.532;13.336;2023-04-01T08:46:54;99507.47;;;11.62;100.00
16595;BME280;8410;52.532;13.336;2023-04-01T08:49:37;99524.50;;;10.92;100.00
16595;BME280;8410;52.532;13.336;2023-04-01T08:52:22;99519.75;;;10.40;100.00
16595;BME280;8410;52.532;13.336;2023-04-01T08:58:16;99520.66;;;10.25;100.00
16595;BME280;8410;52.532;13.336;2023-04-01T09:00:50;99521.56;;;10.16;100.00
16595;BME280;8410;52.532;13.336;2023-04-01T09:03:47;99525.03;;;10.09;100.00
16595;BME280;8410;52.532;13.336;2023-04-01T09:06:32;99522.53;;;9.96;100.00
16595;BME280;8410;52.532;13.336;2023-04-01T09:12:33;99524.59;;;10.81;100.00
16595;BME280;8410;52.532;13.336;2023-04-01T09:15:30;99523.13;;;11.44;100.00
16595;BME280;8410;52.532;13.336;2023-04-01T09:21:22;99540.69;;;11.05;100.00
16595;BME280;8410;52.532;13.336;2023-04-01T09:24:16;99547.06;;;10.58;100.00
16595;BME280;8410;52.532;13.336;2023-04-01T09:27:02;99552.31;;;10.40;100.00
16595;BME280;8410;52.532;13.336;2023-04-01T09:30:04;99557.47;;;10.36;100.00
16595;BME280;8410;52.532;13.336;2023-04-01T09:32:44;99559.16;;;10.45;100.00
16595;BME280;8410;52.532;13.336;2023-04-01T09:35:23;99565.38;;;9.90;100.00
16595;BME280;8410;52.532;13.336;2023-04-01T09:37:54;99573.91;;;10.02;100.00
16595;BME280;8410;52.532;13.336;2023-04-01T09:40:33;99567.00;;;10.19;100.00
16595;BME280;8410;52.532;13.336;2023-04-01T09:43:16;99577.91;;;10.64;100.00
16595;BME280;8410;52.532;13.336;2023-04-01T09:45:57;99576.47;;;10.11;100.00
16595;BME280;8410;52.532;13.336;2023-04-01T09:48:42;99577.16;;;10.47;100.00
16595;BME280;8410;52.532;13.336;2023-04-01T09:51:23;99583.44;;;9.81;100.00
16595;BME280;8410;52.532;13.336;2023-04-01T09:54:13;99581.69;;;9.86;100.00
16595;BME280;8410;52.532;13.336;2023-04-01T09:57:06;99582.44;;;10.13;100.00
16595;BME280;8410;52.532;13.336;2023-04-01T09:59:58;99581.53;;;10.25;100.00
16595;BME280;8410;52.532;13.336;2023-04-01T10:06:09;99591.19;;;9.66;100.00
16595;BME280;8410;52.532;13.336;2023-04-01T10:09:02;99594.56;;;9.86;100.00
16595;BME280;8410;52.532;13.336;2023-04-01T10:18:28;99607.44;;;9.76;100.00
16595;BME280;8410;52.532;13.336;2023-04-01T10:21:22;99600.41;;;10.21;100.00
16595;BME280;8410;52.532;13.336;2023-04-01T10:24:15;99609.16;;;9.69;100.00
16595;BME280;8410;52.532;13.336;2023-04-01T10:27:05;99610.84;;;9.75;100.00
16595;BME280;8410;52.532;13.336;2023-04-01T10:29:56;99605.50;;;10.39;100.00
16595;BME280;8410;52.532;13.336;2023-04-01T10:36:01;99616.88;;;9.50;100.00
16595;BME280;8410;52.532;13.336;2023-04-01T10:39:06;99630.56;;;9.62;100.00
16595;BME280;8410;52.532;13.336;2023-04-01T10:45:09;99628.78;;;9.99;100.00
16595;BME280;8410;52.532;13.336;2023-04-01T10:48:23;99621.72;;;10.55;100.00
16595;BME280;8410;52.532;13.336;2023-04-01T10:51:12;99628.88;;;9.58;100.00
16595;BME280;8410;52.532;13.336;2023-04-01T10:53:49;99637.41;;;9.64;100.00
16595;BME280;8410;52.532;13.336;2023-04-01T10:56:33;99629.72;;;9.43;100.00
16595;BME280;8410;52.532;13.336;2023-04-01T10:59:36;99638.25;;;9.65;100.00
16595;BME280;8410;52.532;13.336;2023-04-01T11:05:35;99642.56;;;9.43;100.00
16595;BME280;8410;52.532;13.336;2023-04-01T11:08:37;99644.28;;;9.73;100.00
16595;BME280;8410;52.532;13.336;2023-04-01T11:17:36;99653.63;;;9.94;100.00
16595;BME280;8410;52.532;13.336;2023-04-01T11:20:45;99656.22;;;9.91;100.00
16595;BME280;8410;52.532;13.336;2023-04-01T11:23:53;99666.53;;;8.88;100.00
16595;BME280;8410;52.532;13.336;2023-04-01T11:26:33;99653.72;;;9.17;100.00
16595;BME280;8410;52.532;13.336;2023-04-01T11:29:25;99660.56;;;9.61;100.00
16595;BME280;8410;52.532;13.336;2023-04-01T11:32:05;99669.13;;;9.59;100.00
16595;BME280;8410;52.532;13.336;2023-04-01T11:34:51;99666.53;;;9.71;100.00
16595;BME280;8410;52.532;13.336;2023-04-01T11:37:33;99669.97;;;9.79;100.00
16595;BME280;8410;52.532;13.336;2023-04-01T11:40:11;99673.41;;;9.50;100.00
16595;BME280;8410;52.532;13.336;2023-04-01T11:42:46;99676.81;;;9.40;100.00
16595;BME280;8410;52.532;13.336;2023-04-01T11:45:27;99682.84;;;9.44;100.00
16595;BME280;8410;52.532;13.336;2023-04-01T11:48:23;99686.19;;;9.98;100.00
16595;BME280;8410;52.532;13.336;2023-04-01T11:51:04;99684.50;;;9.91;100.00
16595;BME280;8410;52.532;13.336;2023-04-01T11:53:43;99692.25;;;9.76;100.00
16595;BME280;8410;52.532;13.336;2023-04-01T11:56:23;99697.38;;;9.59;100.00
16595;BME280;8410;52.532;13.336;2023-04-01T12:01:59;99706.81;;;9.31;100.00
16595;BME280;8410;52.532;13.336;2023-04-01T12:04:47;99717.03;;;9.09;100.00
16595;BME280;8410;52.532;13.336;2023-04-01T12:07:40;99714.50;;;9.78;100.00
16595;BME280;8410;52.532;13.336;2023-04-01T12:10:17;99711.97;;;9.70;100.00
16595;BME280;8410;52.532;13.336;2023-04-01T12:12:51;99721.34;;;9.30;100.00
16595;BME280;8410;52.532;13.336;2023-04-01T12:15:33;99727.31;;;9.24;100.00
16595;BME280;8410;52.532;13.336;2023-04-01T12:18:12;99723.06;;;9.37;100.00
16595;BME280;8410;52.532;13.336;2023-04-01T12:20:49;99732.50;;;9.38;100.00
16595;BME280;8410;52.532;13.336;2023-04-01T12:23:47;99731.56;;;9.02;100.00
16595;BME280;8410;52.532;13.336;2023-04-01T12:26:43;99740.09;;;8.95;100.00
16595;BME280;8410;52.532;13.336;2023-04-01T12:29:28;99759.78;;;8.93;100.00
16595;BME280;8410;52.532;13.336;2023-04-01T12:32:15;99739.97;;;8.63;100.00
16595;BME280;8410;52.532;13.336;2023-04-01T12:35:02;99742.53;;;8.63;100.00
16595;BME280;8410;52.532;13.336;2023-04-01T12:37:40;99738.31;;;8.67;100.00
16595;BME280;8410;52.532;13.336;2023-04-01T12:40:37;99752.75;;;8.45;100.00
16595;BME280;8410;52.532;13.336;2023-04-01T12:43:32;99762.22;;;8.66;100.00
16595;BME280;8410;52.532;13.336;2023-04-01T12:46:08;99757.25;;;9.05;100.00
16595;BME280;8410;52.532;13.336;2023-04-01T12:48:59;99760.59;;;8.80;100.00
16595;BME280;8410;52.532;13.336;2023-04-01T12:51:48;99767.41;;;8.69;100.00
16595;BME280;8410;52.532;13.336;2023-04-01T12:57:32;99764.16;;;9.34;100.00
16595;BME280;8410;52.532;13.336;2023-04-01T13:00:24;99769.19;;;8.88;100.00
16595;BME280;8410;52.532;13.336;2023-04-01T13:03:05;99782.75;;;8.63;100.00
16595;BME280;8410;52.532;13.336;2023-04-01T13:06:14;99781.06;;;8.74;100.00
16595;BME280;8410;52.532;13.336;2023-04-01T13:08:53;99796.41;;;8.58;100.00
16595;BME280;8410;52.532;13.336;2023-04-01T13:11:34;99791.22;;;8.49;100.00
16595;BME280;8410;52.532;13.336;2023-04-01T13:17:15;99793.84;;;8.60;100.00
16595;BME280;8410;52.532;13.336;2023-04-01T13:19:49;99794.75;;;8.64;100.00
16595;BME280;8410;52.532;13.336;2023-04-01T13:22:48;99793.19;;;9.02;100.00
16595;BME280;8410;52.532;13.336;2023-04-01T13:25:23;99805.94;;;8.81;100.00
16595;BME280;8410;52.532;13.336;2023-04-01T13:27:56;99814.28;;;8.46;100.00
16595;BME280;8410;52.532;13.336;2023-04-01T13:30:27;99817.03;;;8.77;100.00
16595;BME280;8410;52.532;13.336;2023-04-01T13:33:04;99823.75;;;8.56;100.00
16595;BME280;8410;52.532;13.336;2023-04-01T13:35:40;99828.94;;;8.66;100.00
16595;BME280;8410;52.532;13.336;2023-04-01T13:41:23;99834.69;;;8.34;100.00
16595;BME280;8410;52.532;13.336;2023-04-01T13:43:59;99844.91;;;8.28;100.00
16595;BME280;8410;52.532;13.336;2023-04-01T13:46:41;99837.47;;;8.58;100.00
16595;BME280;8410;52.532;13.336;2023-04-01T13:49:41;99835.50;;;8.28;100.00
16595;BME280;8410;52.532;13.336;2023-04-01T13:52:37;99844.00;;;8.20;100.00
16595;BME280;8410;52.532;13.336;2023-04-01T13:58:38;99849.31;;;8.41;100.00
16595;BME280;8410;52.532;13.336;2023-04-01T14:01:12;99852.44;;;8.06;100.00
16595;BME280;8410;52.532;13.336;2023-04-01T14:03:54;99852.53;;;8.15;100.00
16595;BME280;8410;52.532;13.336;2023-04-01T14:06:35;99849.63;;;8.93;100.00
16595;BME280;8410;52.532;13.336;2023-04-01T14:09:45;99851.41;;;9.07;100.00
16595;BME280;8410;52.532;13.336;2023-04-01T14:12:28;99864.63;;;8.32;100.00
16595;BME280;8410;52.532;13.336;2023-04-01T14:15:11;99869.47;;;8.01;100.00
16595;BME280;8410;52.532;13.336;2023-04-01T14:18:02;99859.34;;;8.16;100.00
16595;BME280;8410;52.532;13.336;2023-04-01T14:20:39;99866.03;;;7.99;100.00
16595;BME280;8410;52.532;13.336;2023-04-01T14:23:41;99886.63;;;8.08;100.00
16595;BME280;8410;52.532;13.336;2023-04-01T14:26:19;99883.97;;;7.99;100.00
16595;BME280;8410;52.532;13.336;2023-04-01T14:28:56;99896.56;;;7.74;100.00
16595;BME280;8410;52.532;13.336;2023-04-01T14:31:47;99885.47;;;7.72;100.00
16595;BME280;8410;52.532;13.336;2023-04-01T14:34:23;99893.16;;;7.72;100.00
16595;BME280;8410;52.532;13.336;2023-04-01T14:37:10;99897.34;;;7.69;100.00
16595;BME280;8410;52.532;13.336;2023-04-01T14:40:10;99894.53;;;8.33;100.00
16595;BME280;8410;52.532;13.336;2023-04-01T14:42:59;99900.06;;;7.83;100.00
16595;BME280;8410;52.532;13.336;2023-04-01T14:45:45;99909.22;;;7.59;100.00
16595;BME280;8410;52.532;13.336;2023-04-01T14:48:21;99906.75;;;7.68;100.00